logo
Search for airport 
image banner adimage banner adimage banner ad
image banner ad

OITL - Ardabil / Secondary International Aerodrome

Located in Ardabil, Iran, Islamic Republic of

ICAO - OITL, IATA - ADU

Data provided by Airmate  

General information

Coordinates: N38°19'36" E48°25'27"
Elevation is 4319 feet MSL.
 
Rated:
View ratings:
[VIEW]
View others Airports in Ardabil Province

Operational data

Special qualification required
Current time UTC:
Current local time:
Weather
METAR: OITL 220800Z 09019KT 9999 FEW030 SCT045CB 14/07 Q1021 NOSIG
TAF: TAF OITL 220800Z 2209/2218 10010KT 8000 FEW035CB SCT040 BKN100 TEMPO 2209/2215 10020KT 4000 TSRA SCT030CB BKN035 OVC090 TEMPO 2215/2218 3000 BR
View NOTAMs / SUP AIP / TFR affecting this airport [VIEW]
Communications frequencies: [VIEW]

Runways:

RWY identifierQFULength (ft)Width (ft)SurfaceLDA (ft)
0775°8202148UNK
25255°8202148UNK
15150°10820148PEM
33330°10820148PEM

Airport contact information

Address: Ardabil Iran, Islamic Republic of

Satellite view of OITL